createdAt,value
2017-10-20T00:01:28.808Z,18.23
2017-10-20T00:03:57.054Z,18.40
2017-10-20T00:06:24.488Z,18.80
2017-10-20T00:08:51.940Z,19.07
2017-10-20T00:11:19.366Z,17.40
2017-10-20T00:13:47.582Z,14.63
2017-10-20T00:16:15.026Z,15.17
2017-10-20T00:18:42.466Z,17.10
2017-10-20T00:21:09.896Z,17.90
2017-10-20T00:23:38.116Z,14.93
2017-10-20T00:26:05.546Z,16.97
2017-10-20T00:28:32.996Z,14.80
2017-10-20T00:31:01.207Z,21.60
2017-10-20T00:33:28.661Z,17.80
2017-10-20T00:35:56.098Z,17.50
2017-10-20T00:38:23.537Z,18.50
2017-10-20T00:40:51.749Z,22.63
2017-10-20T00:43:19.206Z,23.03
2017-10-20T00:45:47.409Z,19.40
2017-10-20T00:48:14.857Z,17.73
2017-10-20T00:50:42.296Z,18.63
2017-10-20T00:53:09.753Z,16.97
2017-10-20T00:55:37.189Z,15.33
2017-10-20T00:58:04.633Z,17.40
2017-10-20T01:00:32.848Z,18.70
2017-10-20T01:03:00.305Z,16.80
2017-10-20T01:05:27.741Z,21.90
2017-10-20T01:07:55.181Z,18.97
2017-10-20T01:10:23.386Z,20.43
2017-10-20T01:12:50.826Z,17.87
2017-10-20T01:15:18.311Z,19.30
2017-10-20T01:17:45.733Z,17.80
2017-10-20T01:20:13.171Z,21.70
2017-10-20T01:22:40.850Z,23.00
2017-10-20T01:25:08.282Z,20.83
2017-10-20T01:27:35.721Z,24.47
2017-10-20T01:30:03.166Z,20.00
2017-10-20T01:32:30.617Z,17.57
2017-10-20T01:34:58.045Z,19.27
2017-10-20T01:37:25.479Z,20.10
2017-10-20T01:39:53.693Z,17.87
2017-10-20T01:42:21.129Z,27.40
2017-10-20T01:44:48.577Z,23.50
2017-10-20T01:47:16.014Z,27.30
2017-10-20T01:49:43.453Z,18.80
2017-10-20T01:52:10.881Z,24.70
2017-10-20T01:54:38.317Z,19.00
2017-10-20T01:57:05.745Z,15.77
2017-10-20T01:59:33.950Z,22.00
2017-10-20T02:02:01.381Z,16.70
2017-10-20T02:04:33.956Z,19.50
2017-10-20T02:07:02.164Z,18.03
2017-10-20T02:09:30.603Z,23.40
2017-10-20T02:11:58.804Z,20.13
2017-10-20T02:14:26.240Z,21.40
2017-10-20T02:16:54.455Z,20.27
2017-10-20T02:19:21.877Z,18.70
2017-10-20T02:21:50.074Z,15.13
2017-10-20T02:24:17.517Z,23.80
2017-10-20T02:26:44.949Z,19.83
2017-10-20T02:29:12.384Z,19.10
2017-10-20T02:31:39.817Z,14.97
2017-10-20T02:34:07.255Z,17.90
2017-10-20T02:36:34.689Z,18.73
2017-10-20T02:39:02.896Z,18.13
2017-10-20T02:41:30.324Z,19.13
2017-10-20T02:43:58.533Z,19.30
2017-10-20T02:46:26.020Z,17.57
2017-10-20T02:48:53.451Z,16.43
2017-10-20T02:51:20.887Z,16.57
2017-10-20T02:53:48.314Z,20.30
2017-10-20T02:56:16.521Z,19.30
2017-10-20T02:58:43.957Z,28.00
2017-10-20T03:01:13.149Z,24.70
2017-10-20T03:03:41.352Z,14.97
2017-10-20T03:06:08.784Z,16.33
2017-10-20T03:08:36.996Z,24.23
2017-10-20T03:11:04.424Z,23.03
2017-10-20T03:13:31.862Z,20.90
2017-10-20T03:15:59.289Z,18.37
2017-10-20T03:18:26.724Z,19.50
2017-10-20T03:20:54.162Z,21.00
2017-10-20T03:23:21.601Z,16.93
2017-10-20T03:25:49.807Z,15.93
2017-10-20T03:28:18.145Z,17.83
2017-10-20T03:30:46.346Z,17.27
2017-10-20T03:33:13.792Z,20.37
2017-10-20T03:35:41.996Z,19.87
2017-10-20T03:38:09.436Z,19.37
2017-10-20T03:40:36.868Z,23.73
2017-10-20T03:43:05.083Z,21.83
2017-10-20T03:45:32.528Z,19.30
2017-10-20T03:47:59.960Z,21.57
2017-10-20T03:50:27.417Z,25.20
2017-10-20T03:52:55.629Z,22.00
2017-10-20T03:55:23.073Z,22.37
2017-10-20T03:57:50.508Z,23.63
2017-10-20T04:00:18.715Z,23.10
2017-10-20T04:02:46.148Z,22.00
2017-10-20T04:05:13.584Z,18.67
2017-10-20T04:07:41.008Z,23.40
2017-10-20T04:10:08.454Z,19.37
2017-10-20T04:12:35.891Z,22.33
2017-10-20T04:15:03.335Z,24.83
2017-10-20T04:17:30.760Z,20.87
2017-10-20T04:19:58.201Z,22.00
2017-10-20T04:22:25.637Z,25.00
2017-10-20T04:24:53.075Z,30.80
2017-10-20T04:27:20.512Z,23.70
2017-10-20T04:29:48.724Z,21.17
2017-10-20T04:32:16.164Z,21.00
2017-10-20T04:34:43.613Z,22.27
2017-10-20T04:37:11.805Z,23.70
2017-10-20T04:39:39.241Z,19.43
2017-10-20T04:42:07.243Z,16.37
2017-10-20T04:44:34.684Z,17.37
2017-10-20T04:47:02.112Z,24.73
2017-10-20T04:49:29.572Z,19.03
2017-10-20T04:51:57.012Z,23.63
2017-10-20T04:54:25.220Z,20.60
2017-10-20T04:56:52.644Z,17.23
2017-10-20T04:59:20.861Z,21.50
2017-10-20T05:01:48.289Z,19.33
2017-10-20T05:04:16.493Z,20.87
2017-10-20T05:06:44.741Z,19.93
2017-10-20T05:09:12.179Z,19.63
2017-10-20T05:11:39.612Z,22.50
2017-10-20T05:14:07.053Z,20.77
2017-10-20T05:16:34.489Z,17.80
2017-10-20T05:19:01.915Z,18.23
2017-10-20T05:21:30.127Z,20.17
2017-10-20T05:23:57.572Z,24.57
2017-10-20T05:26:24.995Z,21.17
2017-10-20T05:28:53.214Z,25.53
2017-10-20T05:31:20.657Z,18.37
2017-10-20T05:33:48.088Z,19.40
2017-10-20T05:36:16.285Z,21.43
2017-10-20T05:38:43.723Z,23.40
2017-10-20T05:41:11.928Z,21.93
2017-10-20T05:43:39.375Z,25.10
2017-10-20T05:46:06.806Z,21.40
2017-10-20T05:48:35.018Z,23.43
2017-10-20T05:51:02.460Z,35.40
2017-10-20T05:53:29.880Z,20.40
2017-10-20T05:55:57.316Z,23.40
2017-10-20T05:58:24.762Z,23.87
2017-10-20T06:00:52.204Z,21.40
2017-10-20T06:03:19.640Z,22.30
2017-10-20T06:05:47.843Z,24.13
2017-10-20T06:08:15.281Z,22.10
2017-10-20T06:10:42.725Z,21.93
2017-10-20T06:13:10.156Z,22.73
2017-10-20T06:15:37.603Z,24.00
2017-10-20T06:18:07.024Z,21.63
2017-10-20T06:20:35.241Z,22.00
2017-10-20T06:23:02.667Z,22.40
2017-10-20T06:25:30.874Z,22.63
2017-10-20T06:27:58.317Z,22.97
2017-10-20T06:30:25.757Z,26.30
2017-10-20T06:32:53.969Z,24.47
2017-10-20T06:35:21.406Z,23.50
2017-10-20T06:37:48.848Z,27.90
2017-10-20T06:40:17.058Z,25.77
2017-10-20T06:42:44.489Z,22.27
2017-10-20T06:45:11.924Z,25.87
2017-10-20T06:47:40.144Z,25.23
2017-10-20T06:50:07.583Z,28.80
2017-10-20T06:52:35.016Z,21.00
2017-10-20T06:55:02.461Z,27.27
2017-10-20T06:57:29.898Z,28.20
2017-10-20T06:59:57.323Z,27.17
2017-10-20T07:02:24.760Z,28.70
2017-10-20T07:04:52.212Z,28.23
2017-10-20T07:07:19.645Z,35.57
2017-10-20T07:09:47.081Z,31.33
2017-10-20T07:12:14.538Z,27.57
2017-10-20T07:14:41.976Z,31.87
2017-10-20T07:17:09.430Z,27.03
2017-10-20T07:19:42.452Z,34.30
2017-10-20T07:22:09.894Z,21.73
2017-10-20T07:24:37.328Z,33.20
2017-10-20T07:27:04.777Z,29.20
2017-10-20T07:29:32.220Z,27.73
2017-10-20T07:31:59.661Z,25.70
2017-10-20T07:34:27.868Z,24.77
2017-10-20T07:36:57.224Z,22.40
2017-10-20T07:39:25.443Z,35.67
2017-10-20T07:41:52.881Z,32.67
2017-10-20T07:44:20.316Z,28.23
2017-10-20T07:46:47.754Z,32.33
2017-10-20T07:49:15.175Z,29.50
2017-10-20T07:51:42.657Z,29.60
2017-10-20T07:54:10.837Z,31.87
2017-10-20T07:56:38.271Z,29.87
2017-10-20T07:59:05.719Z,31.83
2017-10-20T08:01:33.167Z,29.90
2017-10-20T08:04:00.607Z,28.40
2017-10-20T08:06:28.802Z,30.00
2017-10-20T08:08:56.236Z,35.13
2017-10-20T08:11:23.674Z,29.83
2017-10-20T08:13:51.884Z,35.17
2017-10-20T08:16:19.322Z,32.37
2017-10-20T08:18:46.763Z,32.20
2017-10-20T08:21:14.964Z,35.17
2017-10-20T08:23:42.397Z,36.27
2017-10-20T08:26:10.621Z,29.60
2017-10-20T08:28:38.053Z,36.63
2017-10-20T08:31:05.490Z,32.37
2017-10-20T08:33:33.745Z,34.17
2017-10-20T08:36:01.191Z,32.13
2017-10-20T08:38:28.624Z,28.67
2017-10-20T08:40:56.069Z,31.27
2017-10-20T08:43:23.498Z,29.60
2017-10-20T08:45:51.723Z,42.37
2017-10-20T08:48:19.146Z,35.60
2017-10-20T08:50:46.585Z,38.93
2017-10-20T08:53:14.782Z,38.37
2017-10-20T08:55:42.218Z,38.73
2017-10-20T08:58:09.660Z,34.30
2017-10-20T09:00:37.877Z,39.40
2017-10-20T09:03:05.312Z,32.87
2017-10-20T09:05:32.754Z,35.50
2017-10-20T09:08:00.945Z,29.50
2017-10-20T09:10:28.389Z,32.10
2017-10-20T09:12:56.600Z,36.80
2017-10-20T09:15:24.033Z,33.03
2017-10-20T09:17:51.485Z,31.07
2017-10-20T09:20:19.684Z,29.50
2017-10-20T09:22:47.122Z,27.87
2017-10-20T09:25:14.557Z,31.17
2017-10-20T09:27:42.752Z,30.37
2017-10-20T09:30:10.246Z,32.60
2017-10-20T09:32:37.661Z,28.63
2017-10-20T09:35:05.096Z,27.60
2017-10-20T09:37:33.306Z,30.40
2017-10-20T09:40:00.745Z,22.20
2017-10-20T09:42:28.949Z,32.63
2017-10-20T09:44:56.385Z,28.47
2017-10-20T09:47:23.825Z,22.40
2017-10-20T09:49:52.044Z,23.17
2017-10-20T09:52:19.479Z,25.13
2017-10-20T09:54:46.918Z,14.60
2017-10-20T09:57:15.125Z,21.83
2017-10-20T09:59:42.556Z,15.90
2017-10-20T10:02:09.992Z,15.00
2017-10-20T10:04:38.192Z,14.60
2017-10-20T10:07:06.392Z,15.47
2017-10-20T10:09:34.821Z,10.20
2017-10-20T10:12:02.258Z,13.20
2017-10-20T10:14:29.683Z,10.73
2017-10-20T10:16:57.134Z,10.50
2017-10-20T10:19:24.561Z,12.47
2017-10-20T10:21:52.779Z,15.90
2017-10-20T10:24:20.209Z,9.77
2017-10-20T10:26:47.643Z,9.90
2017-10-20T10:29:15.858Z,13.90
2017-10-20T10:31:43.288Z,12.17
2017-10-20T10:34:10.748Z,10.93
2017-10-20T10:36:38.181Z,14.43
2017-10-20T10:39:05.608Z,12.00
2017-10-20T10:41:33.069Z,10.80
2017-10-20T10:44:00.498Z,13.13
2017-10-20T10:46:27.937Z,15.40
2017-10-20T10:48:55.373Z,10.67
2017-10-20T10:51:23.589Z,17.37
2017-10-20T10:53:51.021Z,13.60
2017-10-20T10:56:18.467Z,23.13
2017-10-20T10:58:46.656Z,12.30
2017-10-20T11:01:14.090Z,16.20
2017-10-20T11:03:42.286Z,17.57
2017-10-20T11:06:21.620Z,17.10
2017-10-20T11:09:00.860Z,11.67
2017-10-20T11:11:40.125Z,9.57
2017-10-20T11:14:07.545Z,5.83
2017-10-20T11:16:34.986Z,7.47
2017-10-20T11:19:02.406Z,5.17
2017-10-20T11:21:30.810Z,3.10
2017-10-20T11:23:58.237Z,2.77
2017-10-20T11:26:27.673Z,3.13
2017-10-20T11:28:55.868Z,3.00
2017-10-20T11:31:25.246Z,3.10
2017-10-20T11:33:52.681Z,6.13
2017-10-20T11:36:20.121Z,2.30
2017-10-20T11:38:47.549Z,2.93
2017-10-20T11:41:14.976Z,1.00
2017-10-20T11:43:43.165Z,1.47
2017-10-20T11:46:10.608Z,4.63
2017-10-20T11:48:38.073Z,3.00
2017-10-20T11:51:05.506Z,1.90
2017-10-20T11:53:32.924Z,4.50
2017-10-20T11:56:00.367Z,1.27
2017-10-20T11:58:27.784Z,0.83
2017-10-20T12:00:55.230Z,2.40
2017-10-20T12:03:22.652Z,1.10
2017-10-20T12:05:50.118Z,0.70
2017-10-20T12:08:17.557Z,2.40
2017-10-20T12:10:44.976Z,2.87
2017-10-20T12:13:13.173Z,3.97
2017-10-20T12:15:40.592Z,0.90
2017-10-20T12:18:08.021Z,2.40
2017-10-20T12:20:35.456Z,2.90
2017-10-20T12:23:02.890Z,1.17
2017-10-20T12:25:31.096Z,3.07
2017-10-20T12:27:58.521Z,2.80
2017-10-20T12:30:25.945Z,3.60
2017-10-20T12:32:53.385Z,5.13
2017-10-20T12:35:20.847Z,2.77
2017-10-20T12:37:48.289Z,4.77
2017-10-20T12:40:15.720Z,5.97
2017-10-20T12:42:43.148Z,2.00
2017-10-20T12:45:11.340Z,6.70
2017-10-20T12:47:38.769Z,1.37
2017-10-20T12:50:06.195Z,3.90
2017-10-20T12:52:33.628Z,1.77
2017-10-20T12:55:01.051Z,3.47
2017-10-20T12:57:28.513Z,2.70
2017-10-20T12:59:56.701Z,2.10
2017-10-20T13:02:24.128Z,0.97
2017-10-20T13:04:51.581Z,4.53
2017-10-20T13:07:19.002Z,2.27
2017-10-20T13:09:46.444Z,5.83
2017-10-20T13:12:13.871Z,1.10
2017-10-20T13:14:42.066Z,3.83
2017-10-20T13:17:09.493Z,4.37
2017-10-20T13:19:37.696Z,2.87
2017-10-20T13:22:05.131Z,2.40
2017-10-20T13:24:33.330Z,3.60
2017-10-20T13:27:00.752Z,3.20
2017-10-20T13:29:28.955Z,1.30
2017-10-20T13:31:56.388Z,2.50
2017-10-20T13:34:24.580Z,2.10
2017-10-20T13:36:52.018Z,3.40
2017-10-20T13:39:20.218Z,3.90
2017-10-20T13:41:47.658Z,6.47
2017-10-20T13:44:15.859Z,1.53
2017-10-20T13:46:43.293Z,4.47
2017-10-20T13:49:11.479Z,3.90
2017-10-20T13:51:38.912Z,1.43
2017-10-20T13:54:07.113Z,3.00
2017-10-20T13:56:34.548Z,4.87
2017-10-20T13:59:02.746Z,8.77
2017-10-20T14:01:30.172Z,3.53
2017-10-20T14:03:58.372Z,3.10
2017-10-20T14:06:25.799Z,1.50
2017-10-20T14:08:53.219Z,3.10
2017-10-20T14:11:20.661Z,2.40
2017-10-20T14:13:48.093Z,1.40
2017-10-20T14:16:16.291Z,8.80
2017-10-20T14:18:43.708Z,3.83
2017-10-20T14:21:11.908Z,5.33
2017-10-20T14:23:39.339Z,2.00
2017-10-20T14:26:07.541Z,2.77
2017-10-20T14:28:34.980Z,2.10
2017-10-20T14:31:03.174Z,2.90
2017-10-20T14:33:30.613Z,1.63
2017-10-20T14:35:58.804Z,2.80
2017-10-20T14:38:26.240Z,4.90
2017-10-20T14:40:54.440Z,2.70
2017-10-20T14:43:21.869Z,2.00
2017-10-20T14:45:50.060Z,1.47
2017-10-20T14:48:17.489Z,1.53
2017-10-20T14:50:45.681Z,3.33
2017-10-20T14:53:13.120Z,4.73
2017-10-20T14:55:41.316Z,4.43
2017-10-20T14:58:08.768Z,2.00
2017-10-20T15:00:36.954Z,2.00
2017-10-20T15:03:04.401Z,1.60
2017-10-20T15:05:32.587Z,6.70
2017-10-20T15:08:00.025Z,3.13
2017-10-20T15:10:28.221Z,3.70
2017-10-20T15:12:55.656Z,6.30
2017-10-20T15:15:23.864Z,3.57
2017-10-20T15:17:51.292Z,7.93
2017-10-20T15:20:19.496Z,3.47
2017-10-20T15:22:46.936Z,2.90
2017-10-20T15:25:14.360Z,3.73
2017-10-20T15:27:41.794Z,4.00
2017-10-20T15:30:09.229Z,6.63
2017-10-20T15:32:36.681Z,8.67
2017-10-20T15:35:04.125Z,8.73
2017-10-20T15:37:31.542Z,3.23
2017-10-20T15:39:59.006Z,3.13
2017-10-20T15:42:26.438Z,2.00
2017-10-20T15:44:53.870Z,8.17
2017-10-20T15:47:21.302Z,3.00
2017-10-20T15:49:48.724Z,6.53
2017-10-20T15:52:16.160Z,1.80
2017-10-20T15:54:43.584Z,7.60
2017-10-20T15:57:11.012Z,2.90
2017-10-20T15:59:39.215Z,3.47
2017-10-20T16:02:06.644Z,2.77
2017-10-20T16:04:34.844Z,4.57
2017-10-20T16:07:02.271Z,7.43
2017-10-20T16:09:29.693Z,7.13
2017-10-20T16:11:57.149Z,3.93
2017-10-20T16:14:24.557Z,3.87
2017-10-20T16:16:51.998Z,6.63
2017-10-20T16:19:20.196Z,4.93
2017-10-20T16:21:47.638Z,5.90
2017-10-20T16:24:15.841Z,12.10
2017-10-20T16:26:43.270Z,6.70
2017-10-20T16:29:10.697Z,6.37
2017-10-20T16:31:38.128Z,5.33
2017-10-20T16:34:05.568Z,5.03
2017-10-20T16:36:32.993Z,7.53
2017-10-20T16:39:01.184Z,3.53
2017-10-20T16:41:28.612Z,9.63
2017-10-20T16:43:56.804Z,7.53
2017-10-20T16:46:24.231Z,4.20
2017-10-20T16:48:51.671Z,6.87
2017-10-20T16:51:19.105Z,9.30
2017-10-20T16:53:46.537Z,10.13
2017-10-20T16:56:14.036Z,5.47
2017-10-20T16:58:41.469Z,6.83
2017-10-20T17:01:08.905Z,5.07
2017-10-20T17:03:36.364Z,8.60
2017-10-20T17:06:03.798Z,2.87
2017-10-20T17:08:32.017Z,4.63
2017-10-20T17:10:59.435Z,6.67
2017-10-20T17:13:27.652Z,4.43
2017-10-20T17:15:55.104Z,5.13
2017-10-20T17:18:22.546Z,10.50
2017-10-20T17:20:50.004Z,7.97
2017-10-20T17:23:17.444Z,5.33
2017-10-20T17:25:45.624Z,5.53
2017-10-20T17:28:13.061Z,5.83
2017-10-20T17:30:41.284Z,8.13
2017-10-20T17:33:08.724Z,11.90
2017-10-20T17:35:36.156Z,5.67
2017-10-20T17:38:04.351Z,12.43
2017-10-20T17:40:31.832Z,14.40
2017-10-20T17:42:59.257Z,5.07
2017-10-20T17:45:27.445Z,8.00
2017-10-20T17:47:54.876Z,3.40
2017-10-20T17:50:23.090Z,6.60
2017-10-20T17:52:50.523Z,7.60
2017-10-20T17:55:17.982Z,4.20
2017-10-20T17:57:46.167Z,6.37
2017-10-20T18:00:13.594Z,15.73
2017-10-20T18:02:41.793Z,13.00
2017-10-20T18:05:09.213Z,6.10
2017-10-20T18:07:36.644Z,9.07
2017-10-20T18:10:07.090Z,7.50
2017-10-20T18:12:34.525Z,7.07
2017-10-20T18:15:01.971Z,7.57
2017-10-20T18:17:29.408Z,8.70
2017-10-20T18:19:56.838Z,4.63
2017-10-20T18:22:25.070Z,8.80
2017-10-20T18:24:52.497Z,5.93
2017-10-20T18:27:19.922Z,11.37
2017-10-20T18:29:48.124Z,5.93
2017-10-20T18:32:15.602Z,7.60
2017-10-20T18:34:43.036Z,8.43
2017-10-20T18:37:10.466Z,7.37
2017-10-20T18:39:38.688Z,8.40
2017-10-20T18:42:06.116Z,7.30
2017-10-20T18:44:33.549Z,8.60
2017-10-20T18:47:00.981Z,4.33
2017-10-20T18:49:28.413Z,7.40
2017-10-20T18:51:55.849Z,2.73
2017-10-20T18:54:23.277Z,6.13
2017-10-20T18:56:51.471Z,6.10
2017-10-20T18:59:18.906Z,7.30
2017-10-20T19:01:47.099Z,5.53
2017-10-20T19:04:15.305Z,11.20
2017-10-20T19:06:42.734Z,4.80
2017-10-20T19:09:10.162Z,10.43
2017-10-20T19:11:37.600Z,16.53
2017-10-20T19:14:05.072Z,6.70
2017-10-20T19:16:32.517Z,8.30
2017-10-20T19:18:59.953Z,15.37
2017-10-20T19:21:27.382Z,7.37
2017-10-20T19:23:54.821Z,10.07
2017-10-20T19:26:23.028Z,9.77
2017-10-20T19:28:50.473Z,10.80
2017-10-20T19:31:17.904Z,10.87
2017-10-20T19:33:46.114Z,10.87
2017-10-20T19:36:14.305Z,8.93
2017-10-20T19:38:41.736Z,7.13
2017-10-20T19:41:09.180Z,11.33
2017-10-20T19:43:36.609Z,6.77
2017-10-20T19:46:04.037Z,3.10
2017-10-20T19:48:31.490Z,7.17
2017-10-20T19:50:58.932Z,11.23
2017-10-20T19:53:26.368Z,5.33
2017-10-20T19:55:53.796Z,7.23
2017-10-20T19:58:21.229Z,9.03
2017-10-20T20:00:48.648Z,5.03
2017-10-20T20:03:16.097Z,4.67
2017-10-20T20:05:43.516Z,7.30
2017-10-20T20:08:10.958Z,9.00
2017-10-20T20:10:38.385Z,5.33
2017-10-20T20:13:05.820Z,8.70
2017-10-20T20:15:33.248Z,9.00
2017-10-20T20:18:00.678Z,11.53
2017-10-20T20:20:28.106Z,8.77
2017-10-20T20:22:55.535Z,4.80
2017-10-20T20:25:23.724Z,7.27
2017-10-20T20:27:51.182Z,7.33
2017-10-20T20:30:18.644Z,9.53
2017-10-20T20:32:47.501Z,7.00
2017-10-20T20:35:16.467Z,9.10
2017-10-20T20:37:43.897Z,8.37
2017-10-20T20:40:11.363Z,7.13
2017-10-20T20:42:38.792Z,5.13
2017-10-20T20:45:06.260Z,7.10
2017-10-20T20:47:33.677Z,8.00
2017-10-20T20:50:01.875Z,6.90
2017-10-20T20:52:30.076Z,12.87
2017-10-20T20:54:57.516Z,11.00
2017-10-20T20:57:24.947Z,9.70
2017-10-20T20:59:53.159Z,12.80
2017-10-20T21:02:20.581Z,5.40
2017-10-20T21:04:48.789Z,7.33
2017-10-20T21:07:16.220Z,4.73
2017-10-20T21:09:44.420Z,8.50
2017-10-20T21:12:11.849Z,14.90
2017-10-20T21:14:39.308Z,13.23
2017-10-20T21:17:07.497Z,9.10
2017-10-20T21:19:34.937Z,6.90
2017-10-20T21:22:03.154Z,7.13
2017-10-20T21:24:30.582Z,8.53
2017-10-20T21:26:58.103Z,9.13
2017-10-20T21:29:25.531Z,12.00
2017-10-20T21:31:52.972Z,6.47
2017-10-20T21:34:20.440Z,15.03
2017-10-20T21:36:47.876Z,9.10
2017-10-20T21:39:16.214Z,11.93
2017-10-20T21:41:43.626Z,11.93
2017-10-20T21:44:11.052Z,9.17
2017-10-20T21:46:38.541Z,13.40
2017-10-20T21:49:05.949Z,4.57
2017-10-20T21:51:34.136Z,7.93
2017-10-20T21:54:01.577Z,14.53
2017-10-20T21:56:29.773Z,11.57
2017-10-20T21:58:57.213Z,5.27
2017-10-20T22:01:25.450Z,7.33
2017-10-20T22:03:52.897Z,6.30
2017-10-20T22:06:20.309Z,5.17
2017-10-20T22:08:48.524Z,6.43
2017-10-20T22:11:15.950Z,9.10
2017-10-20T22:13:43.419Z,7.17
2017-10-20T22:16:10.846Z,10.60
2017-10-20T22:18:39.039Z,4.50
2017-10-20T22:21:06.530Z,9.03
2017-10-20T22:23:33.976Z,7.10
2017-10-20T22:26:01.413Z,8.30
2017-10-20T22:28:28.848Z,9.40
2017-10-20T22:30:57.046Z,4.73
2017-10-20T22:33:24.470Z,6.60
2017-10-20T22:35:51.934Z,5.27
2017-10-20T22:38:20.120Z,4.93
2017-10-20T22:40:47.550Z,5.20
2017-10-20T22:43:14.972Z,6.87
2017-10-20T22:45:42.435Z,6.87
2017-10-20T22:48:10.093Z,3.67
2017-10-20T22:50:37.525Z,7.00
2017-10-20T22:53:04.965Z,8.57
2017-10-20T22:55:32.418Z,6.70
2017-10-20T22:58:00.615Z,5.90
2017-10-20T23:00:28.036Z,13.90
2017-10-20T23:02:56.254Z,5.80
2017-10-20T23:05:23.672Z,4.90
2017-10-20T23:07:51.899Z,4.43
2017-10-20T23:10:19.327Z,4.57
2017-10-20T23:12:46.749Z,7.00
2017-10-20T23:15:14.180Z,4.10
2017-10-20T23:17:41.622Z,7.10
2017-10-20T23:20:09.072Z,6.40
2017-10-20T23:22:36.501Z,5.00
2017-10-20T23:25:04.704Z,7.43
2017-10-20T23:27:32.137Z,3.10
2017-10-20T23:29:59.578Z,4.70
2017-10-20T23:32:26.998Z,2.90
2017-10-20T23:34:54.437Z,2.63
2017-10-20T23:37:21.861Z,5.80
2017-10-20T23:39:49.306Z,7.80
2017-10-20T23:42:17.484Z,2.70
2017-10-20T23:44:45.704Z,5.40
2017-10-20T23:47:13.147Z,7.47
2017-10-20T23:49:40.597Z,7.20
2017-10-20T23:52:08.026Z,5.97
2017-10-20T23:54:36.236Z,9.80
2017-10-20T23:57:03.666Z,4.77
2017-10-20T23:59:35.401Z,12.10
